Aérodrome :
LOGIN :

S'inscrire | Disclaimer

   EN    FR    IT 

 










Légende :    VFR   VFR Marginal   IFR   IFR Intensif   IFR Très Intensif
Visi : 
Plafond : 
>= 8 km
>= 3000ft
5 à 8 km
1000 à 3000 ft
1500m à 5 km
500 à 1000 ft
800 à 1500m
200 à 500 ft
< 800m
< 200 ft
Symboles :   Orages  Brouillard  Fortes neiges  Fortes précipitations  Vent > 20 kt
SIGMETs :   Divers  Orages  Givrage  Turbulence  Onde Orograph.  Cendres Volcan.






- Altitude de l'aérodrome : 14 ft
- Code IATA : BRE


EDDW - Bremen Neuenland

DERNIER METAR :
  • 191250Z 11009KT 9999 FEW030 OVC040 15/07 Q1018 NOSIG

METARs EXPIRÉS :
  • 191220Z 10009KT 9999 SCT028 OVC040 15/07 Q1018 NOSIG
  • 191150Z 10008KT 070V130 9999 SCT028 OVC040 15/07 Q1019 NOSIG
  • 191120Z 10011KT 070V140 9999 SCT028 OVC040 15/07 Q1019 NOSIG
  • 191050Z 09010KT 070V130 9999 SCT025 OVC040 15/09 Q1019 NOSIG
  • 191020Z 11008KT 9999 SCT020 OVC040 14/09 Q1019 NOSIG

TAF TAF EDDW
Valide du 19 à 12h jusqu'au 20 à 12h UTC


191100Z 1912/2012 08007KT 9999 BKN040



MET'MAP, la Météo Aéronautique d'un coup d'oeil ! - Copyright ORBIFLY Décembre 2007 - Disclaimer

ORBIFLY MET'MAP TEAM :

Programmation & Développement : Alexandra Zaïnal
Sur une idée originale de : Baudouin d'Aumeries
Assistance à la programmation : Marc-Olivier Méhu
Soutien technique & logistique : Manuel Goepfert

Contact : metmap@orbifly.com




SOURCES & CREDITS :

   NOAA